createdAt,value
2023-02-22T00:01:34.146Z,18
2023-02-22T00:03:35.855Z,16.7
2023-02-22T00:09:45.789Z,24.5
2023-02-22T00:15:50.893Z,18.6
2023-02-22T00:17:52.593Z,22.5
2023-02-22T00:19:54.308Z,15.7
2023-02-22T00:21:59.244Z,15.8
2023-02-22T00:24:00.995Z,24.3
2023-02-22T00:26:02.684Z,17.3
2023-02-22T00:28:31.303Z,25.7
2023-02-22T00:30:33.052Z,18.1
2023-02-22T00:32:34.727Z,16.4
2023-02-22T00:38:43.073Z,16.5
2023-02-22T00:40:44.765Z,17.2
2023-02-22T00:42:46.495Z,17.9
2023-02-22T00:44:48.196Z,21.7
2023-02-22T00:46:49.927Z,14.7
2023-02-22T00:48:54.846Z,21.8
2023-02-22T00:50:56.629Z,21.9
2023-02-22T00:52:58.265Z,13.8
2023-02-22T00:54:59.967Z,18.7
2023-02-22T00:57:01.697Z,24.4
2023-02-22T00:59:03.412Z,20.6
2023-02-22T01:03:10.053Z,22
2023-02-22T01:05:11.759Z,20.8
2023-02-22T01:07:13.481Z,23.1
2023-02-22T01:09:15.158Z,26.3
2023-02-22T01:11:17.227Z,29.4
2023-02-22T01:17:25.245Z,25.1
2023-02-22T01:19:26.945Z,32.9
2023-02-22T01:22:31.192Z,46.5
2023-02-22T01:24:32.875Z,37.6
2023-02-22T01:26:34.617Z,35.6
2023-02-22T01:28:36.284Z,39.8
2023-02-22T01:30:41.344Z,40.2
2023-02-22T01:32:42.931Z,43.3
2023-02-22T01:34:44.640Z,38.3
2023-02-22T01:36:46.357Z,46.2
2023-02-22T01:38:48.069Z,56.8
2023-02-22T01:40:49.782Z,47
2023-02-22T01:42:51.460Z,45.3
2023-02-22T01:44:56.386Z,51.7
2023-02-22T01:46:58.101Z,46.2
2023-02-22T01:48:59.817Z,52.5
2023-02-22T01:51:01.521Z,49.5
2023-02-22T01:53:03.233Z,55.5
2023-02-22T01:55:04.947Z,57.1
2023-02-22T02:05:16.785Z,50.3
2023-02-22T02:07:18.462Z,50.3
2023-02-22T02:09:20.164Z,59.1
2023-02-22T02:13:26.801Z,47.7
2023-02-22T02:15:28.520Z,57.9
2023-02-22T02:18:32.735Z,43.1
2023-02-22T02:20:34.396Z,61.4
2023-02-22T02:22:36.092Z,45.7
2023-02-22T02:24:37.789Z,45.3
2023-02-22T02:26:42.735Z,52
2023-02-22T02:28:44.429Z,38.1
2023-02-22T02:30:46.163Z,42.4
2023-02-22T02:32:47.839Z,42.1
2023-02-22T02:34:49.570Z,50.8
2023-02-22T02:36:51.249Z,45.3
2023-02-22T02:38:52.992Z,44.2
2023-02-22T02:40:57.890Z,35.9
2023-02-22T02:42:59.596Z,46.2
2023-02-22T02:45:01.301Z,40.1
2023-02-22T02:47:03.051Z,38.7
2023-02-22T02:49:04.703Z,32.7
2023-02-22T02:51:06.388Z,32.9
2023-02-22T02:53:08.120Z,33.3
2023-02-22T02:55:13.047Z,32.4
2023-02-22T02:59:16.470Z,27.6
2023-02-22T03:01:18.546Z,24.9
2023-02-22T03:07:23.297Z,31.4
2023-02-22T03:09:28.194Z,32.7
2023-02-22T03:11:29.882Z,29.8
2023-02-22T03:13:31.572Z,24.8
2023-02-22T03:14:34.015Z,22.8
2023-02-22T03:16:35.828Z,32.2
2023-02-22T03:18:37.420Z,28.2
2023-02-22T03:20:39.121Z,25.4
2023-02-22T03:22:44.163Z,24.4
2023-02-22T03:24:45.747Z,26
2023-02-22T03:26:47.432Z,31.4
2023-02-22T03:30:50.822Z,26.4
2023-02-22T03:32:52.495Z,23.9
2023-02-22T03:34:54.212Z,31.2
2023-02-22T03:36:59.165Z,29.6
2023-02-22T03:39:00.838Z,25.6
2023-02-22T03:41:02.531Z,27.4
2023-02-22T03:43:04.221Z,24.7
2023-02-22T03:45:05.925Z,28.8
2023-02-22T03:47:07.599Z,31.8
2023-02-22T03:49:09.280Z,25.8
2023-02-22T03:51:16.513Z,26.6
2023-02-22T03:53:15.881Z,20.2
2023-02-22T03:55:17.570Z,24.6
2023-02-22T03:57:19.239Z,26.3
2023-02-22T03:59:20.917Z,33.5
2023-02-22T04:01:22.608Z,34.6
2023-02-22T04:03:24.283Z,23.3
2023-02-22T04:05:29.212Z,38.2
2023-02-22T04:09:32.566Z,26.3
2023-02-22T04:18:09.469Z,28.7
2023-02-22T04:22:12.826Z,29.3
2023-02-22T04:24:14.515Z,31.5
2023-02-22T04:26:16.173Z,25
2023-02-22T04:28:17.832Z,23.9
2023-02-22T04:30:19.586Z,28.9
2023-02-22T04:32:24.492Z,35.2
2023-02-22T04:34:26.088Z,36
2023-02-22T04:36:27.769Z,36.8
2023-02-22T04:42:32.785Z,37.2
2023-02-22T04:44:34.430Z,35.9
2023-02-22T04:46:39.474Z,38.1
2023-02-22T04:52:44.347Z,31.5
2023-02-22T04:54:46.006Z,40.5
2023-02-22T04:58:49.322Z,40.9
2023-02-22T05:02:55.923Z,39.5
2023-02-22T05:04:57.592Z,28.9
2023-02-22T05:06:00.045Z,28.7
2023-02-22T05:08:01.670Z,30
2023-02-22T05:10:03.344Z,31
2023-02-22T05:14:09.904Z,42
2023-02-22T05:16:11.677Z,35.7
2023-02-22T05:18:13.220Z,32.7
2023-02-22T05:20:14.900Z,40.4
2023-02-22T05:22:16.547Z,41.7
2023-02-22T05:26:19.894Z,36.1
2023-02-22T05:28:24.757Z,38.1
2023-02-22T05:30:26.476Z,34.6
2023-02-22T05:32:28.115Z,31.4
2023-02-22T05:34:29.736Z,49.9
2023-02-22T05:36:31.422Z,43.4
2023-02-22T05:42:39.654Z,36.5
2023-02-22T05:46:42.973Z,41
2023-02-22T05:48:44.622Z,37.8
2023-02-22T05:50:46.272Z,43
2023-02-22T05:52:47.945Z,44.6
2023-02-22T05:54:49.608Z,38.8
2023-02-22T05:58:56.170Z,40.1
2023-02-22T06:00:59.923Z,39
2023-02-22T06:04:03.442Z,47.3
2023-02-22T06:06:05.119Z,46.1
2023-02-22T06:08:06.746Z,38.5
2023-02-22T06:10:11.631Z,49.6
2023-02-22T06:12:13.308Z,47.9
2023-02-22T06:14:14.956Z,47.1
2023-02-22T06:16:16.767Z,49.3
2023-02-22T06:18:18.258Z,41.4
2023-02-22T06:20:19.920Z,47.4
2023-02-22T06:22:21.580Z,39.4
2023-02-22T06:24:26.494Z,52
2023-02-22T06:26:28.211Z,46.3
2023-02-22T06:28:29.820Z,48.4
2023-02-22T06:30:31.527Z,55.6
2023-02-22T06:36:36.597Z,54.5
2023-02-22T06:38:41.328Z,57.7
2023-02-22T06:40:42.989Z,54.4
2023-02-22T06:44:46.348Z,52.8
2023-02-22T06:46:47.990Z,60
2023-02-22T06:52:56.194Z,63.6
2023-02-22T06:54:57.851Z,71.6
2023-02-22T06:56:59.616Z,69.1
2023-02-22T06:58:01.939Z,76.6
2023-02-22T07:00:03.591Z,81.1
2023-02-22T07:02:05.294Z,76.6
2023-02-22T07:04:06.918Z,70.8
2023-02-22T07:06:11.799Z,87.5
2023-02-22T07:08:13.442Z,80.1
2023-02-22T07:10:15.086Z,95.4
2023-02-22T07:12:16.769Z,79.5
2023-02-22T07:14:18.412Z,98
2023-02-22T07:16:20.112Z,85.8
2023-02-22T07:18:21.731Z,89.2
2023-02-22T07:22:28.275Z,90.4
2023-02-22T07:24:29.925Z,92
2023-02-22T07:26:31.576Z,107.9
2023-02-22T07:28:33.241Z,116.4
2023-02-22T07:30:34.920Z,99
2023-02-22T07:34:41.437Z,112.4
2023-02-22T07:36:43.102Z,116.8
2023-02-22T07:38:44.752Z,102.8
2023-02-22T07:42:48.057Z,108.3
2023-02-22T07:46:51.354Z,111.6
2023-02-22T07:50:57.870Z,115.8
2023-02-22T07:52:59.527Z,115.7
2023-02-22T07:55:28.150Z,125.3
2023-02-22T07:57:29.802Z,120.4
2023-02-22T07:59:31.469Z,129.4
2023-02-22T08:03:38.263Z,126
2023-02-22T08:05:39.679Z,108.9
2023-02-22T08:07:41.346Z,134.1
2023-02-22T08:11:44.686Z,171.4
2023-02-22T08:13:46.277Z,115.1
2023-02-22T08:15:51.166Z,130.9
2023-02-22T08:17:52.846Z,106.3
2023-02-22T08:19:54.491Z,105
2023-02-22T08:21:56.168Z,131.3
2023-02-22T08:23:57.808Z,76.2
2023-02-22T08:25:59.459Z,90.5
2023-02-22T08:28:01.114Z,81
2023-02-22T08:30:06.260Z,67.6
2023-02-22T08:32:07.938Z,83.3
2023-02-22T08:34:09.362Z,107.7
2023-02-22T08:36:11.017Z,79.6
2023-02-22T08:38:12.707Z,66.7
2023-02-22T08:40:15.064Z,76
2023-02-22T08:44:20.936Z,73.5
2023-02-22T08:48:24.264Z,68
2023-02-22T08:49:26.748Z,57.8
2023-02-22T08:51:28.382Z,54.5
2023-02-22T08:53:30.080Z,49.1
2023-02-22T08:55:31.764Z,68.2
2023-02-22T08:59:38.297Z,67.3
2023-02-22T09:03:41.679Z,56.7
2023-02-22T09:11:53.210Z,63.3
2023-02-22T09:19:58.323Z,64.8
2023-02-22T09:22:00.061Z,52.8
2023-02-22T09:28:08.269Z,50
2023-02-22T09:34:13.322Z,44.9
2023-02-22T09:36:15.358Z,43.6
2023-02-22T09:38:16.741Z,43.2
2023-02-22T09:40:21.725Z,39.4
2023-02-22T09:42:23.347Z,42.9
2023-02-22T09:44:25.054Z,37.4
2023-02-22T09:45:27.589Z,43.2
2023-02-22T09:49:30.877Z,35.4
2023-02-22T09:51:32.598Z,44.3
2023-02-22T09:53:37.488Z,33.2
2023-02-22T09:55:39.195Z,34.6
2023-02-22T09:57:40.899Z,31.2
2023-02-22T10:01:44.299Z,31.2
2023-02-22T10:03:46.025Z,51
2023-02-22T10:05:47.712Z,39.9
2023-02-22T10:07:52.673Z,27.4
2023-02-22T10:09:54.369Z,30.8
2023-02-22T10:11:56.083Z,30.2
2023-02-22T10:13:57.796Z,27.1
2023-02-22T10:15:59.492Z,22.2
2023-02-22T10:18:01.225Z,24.6
2023-02-22T10:20:02.936Z,30.3
2023-02-22T10:22:07.914Z,32.6
2023-02-22T10:24:09.630Z,29
2023-02-22T10:26:11.340Z,28.5
2023-02-22T10:28:13.086Z,24.7
2023-02-22T10:30:24.084Z,23.6
2023-02-22T10:34:18.290Z,23
2023-02-22T10:36:23.279Z,24.8
2023-02-22T10:38:25.019Z,24.6
2023-02-22T10:40:26.752Z,23.1
2023-02-22T10:43:31.003Z,23.1
2023-02-22T10:45:32.862Z,25
2023-02-22T10:47:34.499Z,24.2
2023-02-22T10:49:39.511Z,25.1
2023-02-22T10:51:41.253Z,22.4
2023-02-22T10:53:43.001Z,24.3
2023-02-22T10:55:44.780Z,31.9
2023-02-22T10:57:46.505Z,18
2023-02-22T10:59:48.248Z,23.2
2023-02-22T11:01:50.105Z,22.2
2023-02-22T11:07:58.537Z,32.7
2023-02-22T11:10:00.323Z,26.8
2023-02-22T11:12:02.053Z,31.5
2023-02-22T11:14:03.800Z,29.2
2023-02-22T11:18:10.648Z,29.9
2023-02-22T11:20:12.340Z,26.4
2023-02-22T11:26:17.600Z,27.7
2023-02-22T11:28:19.368Z,27.9
2023-02-22T11:34:27.932Z,27.6
2023-02-22T11:36:29.691Z,28.7
2023-02-22T11:38:58.268Z,27.1
2023-02-22T11:41:00.090Z,24.8
2023-02-22T11:43:01.829Z,31.7
2023-02-22T11:45:06.841Z,30.2
2023-02-22T11:47:08.629Z,27.2
2023-02-22T11:49:10.386Z,30.9
2023-02-22T11:51:14.702Z,28
2023-02-22T11:55:17.228Z,35.4
2023-02-22T11:57:19.008Z,34.6
2023-02-22T11:59:24.045Z,40.4
2023-02-22T12:01:25.836Z,39.6
2023-02-22T12:03:28.910Z,39.6
2023-02-22T12:05:29.401Z,36.8
2023-02-22T12:07:31.180Z,33.3
2023-02-22T12:09:32.999Z,36.7
2023-02-22T12:11:34.748Z,36.3
2023-02-22T12:13:39.779Z,29.7
2023-02-22T12:17:48.165Z,31.1
2023-02-22T12:21:46.934Z,36
2023-02-22T12:23:48.714Z,33.9
2023-02-22T12:25:50.519Z,35.2
2023-02-22T12:27:55.661Z,39.1
2023-02-22T12:29:57.322Z,40
2023-02-22T12:31:59.122Z,44.4
2023-02-22T12:33:01.714Z,45.4
2023-02-22T12:35:03.419Z,39.1
2023-02-22T12:37:05.201Z,35
2023-02-22T12:39:07.665Z,37.6
2023-02-22T12:41:11.997Z,40.8
2023-02-22T12:43:13.827Z,46.4
2023-02-22T12:45:15.588Z,35.2
2023-02-22T12:47:17.372Z,36
2023-02-22T12:49:19.169Z,43.6
2023-02-22T12:51:20.954Z,38.6
2023-02-22T12:55:27.758Z,33.9
2023-02-22T12:57:29.549Z,32.8
2023-02-22T13:01:33.152Z,41.7
2023-02-22T13:03:34.895Z,36.2
2023-02-22T13:05:36.761Z,37
2023-02-22T13:07:38.458Z,32.1
2023-02-22T13:11:45.287Z,34
2023-02-22T13:13:47.057Z,34
2023-02-22T13:15:48.846Z,30.2
2023-02-22T13:17:50.624Z,33.1
2023-02-22T13:21:54.179Z,33.5
2023-02-22T13:23:59.225Z,32
2023-02-22T13:26:00.988Z,33.5
2023-02-22T13:28:02.778Z,38.7
2023-02-22T13:31:07.156Z,28.7
2023-02-22T13:33:08.878Z,28.3
2023-02-22T13:39:17.450Z,29.4
2023-02-22T13:41:19.201Z,35.5
2023-02-22T13:57:36.693Z,19.3
2023-02-22T13:59:38.457Z,19.8
2023-02-22T14:01:40.271Z,21.4
2023-02-22T14:03:42.026Z,21.3
2023-02-22T14:05:47.081Z,20.9
2023-02-22T14:07:48.813Z,18.5
2023-02-22T14:09:50.621Z,18
2023-02-22T14:11:52.348Z,15.9
2023-02-22T14:13:54.126Z,17.3
2023-02-22T14:15:55.940Z,35.7
2023-02-22T14:17:57.702Z,23.9
2023-02-22T14:22:04.495Z,19.3
2023-02-22T14:24:06.264Z,21.2
2023-02-22T14:27:10.562Z,21.5
2023-02-22T14:29:12.321Z,21.7
2023-02-22T14:31:29.373Z,20.8
2023-02-22T14:33:19.144Z,24.9
2023-02-22T14:35:27.350Z,23.3
2023-02-22T14:37:22.670Z,20.6
2023-02-22T14:39:24.456Z,20.7
2023-02-22T14:41:26.241Z,25.1
2023-02-22T14:43:28.002Z,22.3
2023-02-22T14:45:30.173Z,26.4
2023-02-22T14:49:36.641Z,28.7
2023-02-22T14:53:40.171Z,21.9
2023-02-22T14:55:41.955Z,21.8
2023-02-22T14:57:43.727Z,25.7
2023-02-22T15:02:05.787Z,20.1
2023-02-22T15:04:02.084Z,22.8
2023-02-22T15:05:54.063Z,22.3
2023-02-22T15:09:57.676Z,21.9
2023-02-22T15:11:59.403Z,19.1
2023-02-22T15:14:01.171Z,20.1
2023-02-22T15:16:06.218Z,18.3
2023-02-22T15:18:07.961Z,19.4
2023-02-22T15:20:09.748Z,20.6
2023-02-22T15:22:38.361Z,20.4
2023-02-22T15:24:40.125Z,21.5
2023-02-22T15:26:51.851Z,26.1
2023-02-22T15:28:46.933Z,25.4
2023-02-22T15:30:48.680Z,28.3
2023-02-22T15:33:03.523Z,21.6
2023-02-22T15:34:52.254Z,21.5
2023-02-22T15:36:53.995Z,24.2
2023-02-22T15:38:55.776Z,18.6
2023-02-22T15:40:57.538Z,23.6
2023-02-22T15:43:02.558Z,21.8
2023-02-22T15:45:04.310Z,24.1
2023-02-22T15:49:07.876Z,20.9
2023-02-22T15:51:09.615Z,28.4
2023-02-22T15:53:11.412Z,25.9
2023-02-22T15:57:18.166Z,23.3
2023-02-22T16:01:21.969Z,25.8
2023-02-22T16:03:23.502Z,22.1
2023-02-22T16:07:27.019Z,23.7
2023-02-22T16:09:28.782Z,33.7
2023-02-22T16:13:35.580Z,27.3
2023-02-22T16:15:37.329Z,20.4
2023-02-22T16:18:41.603Z,28.3
2023-02-22T16:20:43.346Z,27.7
2023-02-22T16:30:55.523Z,25.6
2023-02-22T16:32:57.284Z,30.5
2023-02-22T16:34:58.998Z,24.5
2023-02-22T16:37:00.677Z,25.6
2023-02-22T16:41:07.437Z,28.1
2023-02-22T16:43:09.191Z,31.5
2023-02-22T16:45:10.963Z,24.6
2023-02-22T16:47:12.719Z,28
2023-02-22T16:49:14.459Z,23.2
2023-02-22T16:53:21.218Z,35.8
2023-02-22T16:59:26.488Z,26.1
2023-02-22T17:01:28.322Z,22.4
2023-02-22T17:03:30.004Z,24.5
2023-02-22T17:05:31.800Z,20.9
2023-02-22T17:07:36.745Z,28.8
2023-02-22T17:09:38.518Z,20.2
2023-02-22T17:11:40.247Z,23.2
2023-02-22T17:18:48.019Z,24.2
2023-02-22T17:24:56.497Z,25.6
2023-02-22T17:29:00.024Z,21.4
2023-02-22T17:31:02.204Z,25.7
2023-02-22T17:35:08.511Z,21.9
2023-02-22T17:37:10.240Z,22.9
2023-02-22T17:43:17.076Z,28.3
2023-02-22T17:45:18.766Z,22.1
2023-02-22T17:47:20.563Z,25
2023-02-22T18:08:47.008Z,38.8
2023-02-22T18:10:48.750Z,21.4
2023-02-22T18:12:50.505Z,23.9
2023-02-22T18:14:52.264Z,27.1
2023-02-22T18:16:57.252Z,23.2
2023-02-22T18:18:59.031Z,21.2
2023-02-22T18:21:00.788Z,22.9
2023-02-22T18:23:02.510Z,20.9
2023-02-22T18:25:04.269Z,17
2023-02-22T18:27:06.060Z,24.8
2023-02-22T18:29:07.782Z,19.9
2023-02-22T18:31:12.809Z,21.6
2023-02-22T18:33:14.513Z,21.1
2023-02-22T18:37:18.007Z,36.5
2023-02-22T18:39:19.746Z,30.3
2023-02-22T18:45:28.228Z,32.7
2023-02-22T18:47:29.969Z,23
2023-02-22T18:49:31.721Z,27.9
2023-02-22T18:51:33.473Z,33.8
2023-02-22T18:53:35.202Z,38.5
2023-02-22T18:55:36.948Z,33.8
2023-02-22T18:57:38.681Z,35.8
2023-02-22T18:59:43.682Z,39.8
2023-02-22T19:01:45.440Z,35.7
2023-02-22T19:03:47.341Z,22.5
2023-02-22T19:06:16.119Z,41.4
2023-02-22T19:08:17.492Z,73.3
2023-02-22T19:10:19.234Z,35.7
2023-02-22T19:16:27.768Z,31.1
2023-02-22T19:26:39.645Z,29.6
2023-02-22T19:36:48.357Z,35.3
2023-02-22T19:40:55.067Z,46.7
2023-02-22T19:42:56.813Z,62
2023-02-22T19:44:58.559Z,69.8
2023-02-22T19:47:00.296Z,43
2023-02-22T19:49:02.095Z,43
2023-02-22T19:51:03.768Z,41.2
2023-02-22T19:53:05.527Z,46.9
2023-02-22T19:55:10.494Z,48.5
2023-02-22T19:59:13.986Z,41.9
2023-02-22T20:00:16.461Z,56.3
2023-02-22T20:02:18.219Z,67.4
2023-02-22T20:04:20.096Z,73.3
2023-02-22T20:08:26.677Z,47
2023-02-22T20:20:37.072Z,55.3
2023-02-22T20:22:42.085Z,82.2
2023-02-22T20:28:47.287Z,65.1
2023-02-22T20:32:50.937Z,50.5
2023-02-22T20:36:57.466Z,53.6
2023-02-22T20:38:59.205Z,55.9
2023-02-22T20:41:00.959Z,42
2023-02-22T20:43:02.701Z,47.1
2023-02-22T20:45:04.411Z,48.9
2023-02-22T20:47:06.152Z,48.5
2023-02-22T20:49:07.879Z,51.7
2023-02-22T20:51:12.882Z,54.1
2023-02-22T20:53:14.607Z,51.4
2023-02-22T20:55:16.353Z,48.2
2023-02-22T20:56:18.841Z,59.5
2023-02-22T20:58:20.584Z,50.5
2023-02-22T21:00:22.316Z,53
2023-02-22T21:02:24.054Z,58.5
2023-02-22T21:04:29.060Z,49.1
2023-02-22T21:06:30.803Z,57
2023-02-22T21:08:32.546Z,56.2
2023-02-22T21:10:34.294Z,59.4
2023-02-22T21:12:36.015Z,57.6
2023-02-22T21:14:37.757Z,64.4
2023-02-22T21:16:39.514Z,62.5
2023-02-22T21:18:44.472Z,66.4
2023-02-22T21:20:46.207Z,60.6
2023-02-22T21:22:47.940Z,61.5
2023-02-22T21:24:49.676Z,55.9
2023-02-22T21:26:51.414Z,60.8
2023-02-22T21:28:53.275Z,66.3
2023-02-22T21:30:55.124Z,59.6
2023-02-22T21:32:59.853Z,59.7
2023-02-22T21:35:01.595Z,61.6
2023-02-22T21:41:06.818Z,68
2023-02-22T21:43:08.502Z,62.7
2023-02-22T21:45:10.225Z,68.6
2023-02-22T21:47:15.200Z,76.7
2023-02-22T21:49:16.940Z,63.8
2023-02-22T21:51:18.923Z,62.5
2023-02-22T21:52:21.181Z,69.3
2023-02-22T21:54:22.883Z,62.7
2023-02-22T21:56:24.609Z,54.1
2023-02-22T22:00:31.316Z,69.7
2023-02-22T22:04:34.784Z,64.8
2023-02-22T22:06:36.499Z,72
2023-02-22T22:08:38.225Z,64.1
2023-02-22T22:10:39.954Z,54.5
2023-02-22T22:12:41.682Z,65.8
2023-02-22T22:14:46.652Z,99
2023-02-22T22:16:48.365Z,73.7
2023-02-22T22:18:50.121Z,72.3
2023-02-22T22:20:51.904Z,75.2
2023-02-22T22:22:53.545Z,67.4
2023-02-22T22:24:55.270Z,76.2
2023-02-22T22:26:57.004Z,69.2
2023-02-22T22:29:01.922Z,68.7
2023-02-22T22:31:03.807Z,61.8
2023-02-22T22:33:05.401Z,64.7
2023-02-22T22:35:08.731Z,63.8
2023-02-22T22:37:08.827Z,64.7
2023-02-22T22:39:10.496Z,67.7
2023-02-22T22:41:12.242Z,57.6
2023-02-22T22:43:17.191Z,62.8
2023-02-22T22:45:18.889Z,71.6
2023-02-22T22:47:20.635Z,63.4
2023-02-22T22:49:49.223Z,76
2023-02-22T22:51:50.977Z,76.4
2023-02-22T22:53:52.693Z,76.4
2023-02-22T22:55:57.653Z,66
2023-02-22T22:57:59.361Z,67.1
2023-02-22T23:00:01.108Z,67.6
2023-02-22T23:02:02.835Z,59.8
2023-02-22T23:04:04.553Z,57
2023-02-22T23:06:06.268Z,68.4
2023-02-22T23:08:08.020Z,67.3
2023-02-22T23:16:18.190Z,58.9
2023-02-22T23:24:28.332Z,71
2023-02-22T23:26:30.041Z,70.1
2023-02-22T23:28:31.787Z,83
2023-02-22T23:30:33.507Z,63.9
2023-02-22T23:34:38.518Z,66.5
2023-02-22T23:36:40.175Z,66.4
2023-02-22T23:38:45.157Z,61.2
2023-02-22T23:40:46.894Z,61.6
2023-02-22T23:42:48.621Z,67.4
2023-02-22T23:43:51.126Z,66.2
2023-02-22T23:45:52.853Z,57.3
2023-02-22T23:47:54.566Z,62.4
2023-02-22T23:49:56.302Z,66.3
2023-02-22T23:52:01.270Z,66.7
2023-02-22T23:54:02.992Z,59.8
2023-02-22T23:56:04.751Z,89.2
2023-02-22T23:58:06.481Z,99.3
